Time;durP1;ratioP1;P1;durP2;ratioP2;P2;SDS_P1;SDS_P2;PMS_P1;PMS_P2;Temp;Humidity;BMP_temperature;BMP_pressure;BME280_temperature;BME280_humidity;BME280_pressure;Samples;Min_cycle;Max_cycle;Signal;HPM_P1;HPM_P2
2022/02/05 00:01:52;;;;;;;9.43;3.83;;;;;;;3.33;78.25;99678.25;5096256;28;20024;-68
2022/02/05 00:04:18;;;;;;;8.82;4.00;;;;;;;3.33;78.16;99675.66;5084543;28;20037;-68
2022/02/05 00:06:48;;;;;;;6.40;3.38;;;;;;;3.31;77.92;99677.44;5088932;28;20024;-67
2022/02/05 00:12:20;;;;;;;7.40;3.90;;;;;;;3.74;81.52;99668.63;5060741;28;20047;-57
2022/02/05 00:44:02;;;;;;;7.78;2.95;;;;;;;3.47;76.25;99728.34;5095166;27;20029;-68
2022/02/05 00:46:33;;;;;;;5.28;2.97;;;;;;;3.44;76.56;99715.34;5104659;28;20042;-68
2022/02/05 00:48:59;;;;;;;7.70;4.03;;;;;;;3.43;76.01;99724.94;5105448;28;20036;-69
2022/02/05 00:51:30;;;;;;;10.15;3.95;;;;;;;3.40;76.25;99731.97;5102866;28;20044;-68
2022/02/05 00:54:29;;;;;;;6.60;3.00;;;;;;;3.36;76.45;99725.94;5087693;27;20559;-69
2022/02/05 00:57:17;;;;;;;15.38;4.95;;;;;;;3.35;76.21;99723.38;5089833;28;20039;-68
2022/02/05 00:59:35;;;;;;;11.93;3.17;;;;;;;3.34;76.09;99732.94;5074014;28;20192;-68
2022/02/05 01:02:00;;;;;;;9.45;3.08;;;;;;;3.33;76.57;99730.38;5082900;28;20081;-68
2022/02/05 01:04:26;;;;;;;10.25;3.63;;;;;;;3.32;76.20;99732.09;5084624;28;20738;-68
2022/02/05 01:06:51;;;;;;;6.53;3.20;;;;;;;3.31;76.40;99732.16;5101867;28;20035;-68
2022/02/05 01:09:23;;;;;;;10.23;3.50;;;;;;;3.28;76.22;99733.06;5103513;28;20106;-68
2022/02/05 01:11:49;;;;;;;7.93;3.17;;;;;;;3.29;76.20;99733.91;5103462;28;20097;-68
2022/02/05 01:14:18;;;;;;;15.13;3.83;;;;;;;3.28;76.23;99734.81;5103728;28;20043;-69
2022/02/05 01:16:56;;;;;;;9.57;3.70;;;;;;;3.26;76.08;99736.59;5103502;28;20035;-69
2022/02/05 01:19:56;;;;;;;5.38;2.72;;;;;;;3.24;76.22;99741.81;5102889;28;20036;-69
2022/02/05 01:22:17;;;;;;;6.07;3.38;;;;;;;3.22;76.76;99744.47;5103450;28;20089;-69
2022/02/05 01:24:44;;;;;;;10.02;3.42;;;;;;;3.20;76.18;99746.25;5103390;28;20043;-69
2022/02/05 01:27:18;;;;;;;9.23;3.22;;;;;;;3.20;76.12;99755.81;5102561;28;20669;-69
2022/02/05 01:30:11;;;;;;;11.90;3.25;;;;;;;3.19;76.20;99762.75;5102634;28;20028;-69
2022/02/05 01:32:40;;;;;;;10.60;3.33;;;;;;;3.17;76.32;99761.06;5099599;28;20652;-68
2022/02/05 01:35:16;;;;;;;7.75;2.80;;;;;;;3.17;76.27;99761.06;5086981;28;20555;-69
2022/02/05 01:57:02;;;;;;;6.30;3.60;;;;;;;3.06;76.32;99783.88;5108469;28;20028;-69
2022/02/05 02:04:54;;;;;;;7.93;3.38;;;;;;;3.03;76.66;99809.94;5107448;28;20407;-68
2022/02/05 02:12:59;;;;;;;10.50;3.85;;;;;;;2.99;76.70;99815.22;5091843;28;20028;-69
2022/02/05 02:15:32;;;;;;;10.35;3.65;;;;;;;2.97;76.76;99822.19;5108114;28;20100;-69
2022/02/05 02:23:35;;;;;;;8.90;3.15;;;;;;;2.97;76.67;99813.53;5108051;28;20032;-68
2022/02/05 02:26:14;;;;;;;13.13;4.15;;;;;;;2.96;76.91;99820.50;5107162;28;20072;-68
2022/02/05 02:28:56;;;;;;;14.55;4.38;;;;;;;2.96;76.64;99827.44;5085160;28;20493;-69
2022/02/05 02:31:26;;;;;;;11.35;3.30;;;;;;;2.96;76.25;99823.09;5104804;28;20054;-69
2022/02/05 02:33:55;;;;;;;14.82;4.10;;;;;;;2.95;76.33;99826.59;5097984;28;20118;-68
2022/02/05 02:36:31;;;;;;;13.02;4.03;;;;;;;2.91;76.00;99822.31;5082899;28;20040;-69
2022/02/05 02:39:03;;;;;;;9.30;3.50;;;;;;;2.89;76.60;99828.44;5084352;28;20051;-69
2022/02/05 02:41:35;;;;;;;11.85;4.57;;;;;;;2.84;76.60;99832.88;5100118;28;20059;-70
2022/02/05 02:44:00;;;;;;;10.93;3.97;;;;;;;2.82;76.82;99835.47;5105027;28;20527;-69
2022/02/05 02:46:26;;;;;;;10.18;3.10;;;;;;;2.77;76.73;99838.16;5103140;28;20063;-68
2022/02/05 02:48:51;;;;;;;10.05;3.97;;;;;;;2.75;76.96;99844.28;5101141;28;20579;-68
2022/02/05 02:56:52;;;;;;;9.90;4.18;;;;;;;2.66;77.33;99842.69;5104081;28;20035;-69
2022/02/05 02:59:48;;;;;;;22.00;5.97;;;;;;;2.66;77.49;99850.50;5103383;28;20545;-68
2022/02/05 03:02:12;;;;;;;15.35;4.15;;;;;;;2.65;77.39;99850.53;5102425;28;20028;-68
2022/02/05 03:04:37;;;;;;;14.07;3.97;;;;;;;2.63;77.22;99852.28;5103886;28;20053;-68
2022/02/05 03:07:04;;;;;;;9.95;3.83;;;;;;;2.63;77.13;99858.34;5103849;28;20039;-68
2022/02/05 03:09:30;;;;;;;7.68;3.88;;;;;;;2.61;77.15;99849.72;5083329;28;20040;-68
2022/02/05 03:11:55;;;;;;;14.50;3.88;;;;;;;2.63;77.31;99862.69;5085028;28;20401;-68
2022/02/05 03:14:21;;;;;;;13.38;4.90;;;;;;;2.61;77.05;99852.31;5084439;28;20104;-68
2022/02/05 03:16:51;;;;;;;15.27;5.65;;;;;;;2.60;77.27;99866.19;5083263;28;20036;-69
2022/02/05 03:19:16;;;;;;;22.38;6.15;;;;;;;2.58;77.24;99874.06;5083873;28;20032;-67
2022/02/05 03:21:43;;;;;;;7.88;3.42;;;;;;;2.57;77.06;99868.88;5084406;28;20101;-68
2022/02/05 03:24:09;;;;;;;16.02;5.20;;;;;;;2.58;77.13;99870.56;5084409;28;20084;-68
2022/02/05 03:27:25;;;;;;;11.80;4.25;;;;;;;2.58;77.01;99881.88;5084471;28;20762;-68
2022/02/05 03:30:39;;;;;;;14.45;3.60;;;;;;;2.56;77.03;99882.78;5100217;28;20046;-68
2022/02/05 03:33:54;;;;;;;11.82;3.95;;;;;;;2.56;76.86;99877.56;5103365;28;20031;-69
2022/02/05 03:37:10;;;;;;;13.55;3.85;;;;;;;2.58;77.10;99866.25;5103264;28;20146;-69
2022/02/05 03:40:25;;;;;;;12.52;3.60;;;;;;;2.56;76.75;99878.41;5083260;28;20480;-68
2022/02/05 03:43:41;;;;;;;11.65;4.60;;;;;;;2.61;76.57;99886.16;5103619;28;20426;-69
2022/02/05 03:46:56;;;;;;;12.27;4.32;;;;;;;2.62;76.46;99887.88;5103348;28;20043;-70
2022/02/05 03:50:12;;;;;;;8.43;3.50;;;;;;;2.61;76.65;99885.28;5083011;28;20032;-69
2022/02/05 03:53:28;;;;;;;14.40;5.97;;;;;;;2.62;76.49;99885.25;5101273;28;20032;-68
2022/02/05 03:56:42;;;;;;;8.77;3.90;;;;;;;2.65;76.49;99893.03;5103289;28;20422;-69
2022/02/05 03:59:58;;;;;;;13.05;3.53;;;;;;;2.73;76.44;99895.50;5103179;28;20097;-68
2022/02/05 04:03:13;;;;;;;14.20;4.93;;;;;;;2.82;75.90;99902.31;5106616;28;20035;-69
2022/02/05 04:06:29;;;;;;;7.93;4.18;;;;;;;2.91;75.74;99900.44;5106577;28;20036;-69
2022/02/05 09:32:06;;;;;;;11.65;4.45;;;;;;;7.77;60.72;100069.75;5105176;28;20042;-68
2022/02/05 09:34:31;;;;;;;13.35;5.60;;;;;;;8.53;59.14;100071.53;5108728;28;20043;-69
2022/02/05 09:36:58;;;;;;;11.73;5.40;;;;;;;9.13;56.75;100064.06;5108586;28;20036;-68
2022/02/05 09:39:24;;;;;;;10.95;5.63;;;;;;;9.09;56.22;100067.72;5073109;28;20031;-70
2022/02/05 09:41:49;;;;;;;14.95;6.10;;;;;;;8.86;56.32;100072.97;5107244;28;20491;-70
2022/02/05 09:44:14;;;;;;;14.27;5.15;;;;;;;9.34;55.89;100074.66;5107756;28;20035;-71
2022/02/05 09:46:40;;;;;;;10.35;5.35;;;;;;;9.68;54.75;100075.00;5105727;28;20096;-68
2022/02/05 09:49:06;;;;;;;16.50;6.78;;;;;;;9.52;55.14;100075.69;5106070;28;20023;-66
2022/02/05 09:51:37;;;;;;;10.80;5.90;;;;;;;9.05;56.41;100087.13;5100010;28;20130;-66
2022/02/05 09:54:07;;;;;;;12.02;5.05;;;;;;;9.71;54.78;100084.53;5104984;28;20123;-67
2022/02/05 09:56:35;;;;;;;12.27;5.40;;;;;;;10.18;53.29;100094.03;5103754;28;20063;-66
2022/02/05 09:59:02;;;;;;;15.73;4.95;;;;;;;9.83;53.54;100101.63;5105398;28;20040;-66
2022/02/05 10:01:32;;;;;;;10.40;5.15;;;;;;;9.93;53.94;100107.38;5107211;28;20032;-66
2022/02/05 10:03:58;;;;;;;17.17;5.82;;;;;;;9.90;53.62;100116.25;5108109;28;20035;-66
2022/02/05 10:06:28;;;;;;;15.75;5.75;;;;;;;10.09;53.65;100117.22;5076851;28;20043;-67
2022/02/05 10:08:58;;;;;;;14.23;5.45;;;;;;;9.96;53.84;100128.31;5093326;28;20505;-66
2022/02/05 10:11:23;;;;;;;13.02;5.32;;;;;;;10.33;53.43;100132.91;5092467;28;20524;-67
2022/02/05 10:13:49;;;;;;;10.43;4.50;;;;;;;9.67;54.09;100130.34;5104648;28;20071;-67
2022/02/05 10:16:15;;;;;;;12.48;5.03;;;;;;;9.09;55.48;100146.59;5103026;28;20039;-66
2022/02/05 10:18:45;;;;;;;12.98;5.63;;;;;;;8.66;56.98;100142.91;5101740;28;20041;-67
2022/02/05 10:21:19;;;;;;;11.00;5.30;;;;;;;8.07;59.26;100148.41;5101000;28;20085;-67
2022/02/05 10:24:04;;;;;;;11.75;4.57;;;;;;;7.56;60.97;100150.06;5106385;28;20039;-66
2022/02/05 10:26:31;;;;;;;7.97;4.70;;;;;;;7.26;61.92;100154.44;5101518;28;20404;-67
2022/02/05 10:29:02;;;;;;;11.95;4.88;;;;;;;6.87;63.08;100152.94;5107437;28;20031;-67
2022/02/05 10:31:29;;;;;;;14.52;5.95;;;;;;;6.71;64.36;100153.41;5100734;28;20044;-67
2022/02/05 10:34:11;;;;;;;11.43;4.82;;;;;;;7.48;60.68;100150.28;5089395;28;20105;-67
2022/02/05 10:36:41;;;;;;;12.00;5.65;;;;;;;7.21;62.34;100151.97;5092340;28;20028;-67
2022/02/05 10:39:54;;;;;;;17.58;5.53;;;;;;;7.28;62.05;100148.25;5091958;28;20035;-67
2022/02/05 10:44:39;;;;;;;13.52;5.45;;;;;;;6.73;63.47;100144.59;5095605;28;20038;-65
2022/02/05 10:47:05;;;;;;;16.50;5.50;;;;;;;6.85;63.35;100144.25;5085229;28;20118;-66
2022/02/05 10:49:45;;;;;;;13.07;5.47;;;;;;;6.52;63.87;100142.56;5093736;28;20032;-66
2022/02/05 10:52:24;;;;;;;17.73;7.00;;;;;;;6.23;65.51;100139.81;5089472;28;20036;-66
2022/02/05 10:55:18;;;;;;;11.35;5.88;;;;;;;6.16;65.47;100142.63;5105841;28;20042;-66
2022/02/05 10:58:14;;;;;;;12.50;4.45;;;;;;;6.07;65.98;100142.88;5105395;28;20032;-67
2022/02/05 11:05:51;;;;;;;14.40;5.03;;;;;;;5.89;67.20;100146.78;5094300;28;20035;-67
2022/02/05 11:08:22;;;;;;;16.98;7.20;;;;;;;5.94;67.26;100143.16;5101955;28;20038;-67
2022/02/05 11:18:39;;;;;;;11.98;5.03;;;;;;;5.73;67.89;100131.41;5099797;28;20035;-66
2022/02/05 11:21:05;;;;;;;12.98;5.00;;;;;;;5.82;67.49;100119.88;5101455;28;20130;-66
2022/02/05 11:23:33;;;;;;;10.90;4.85;;;;;;;5.84;67.51;100119.84;5109109;28;20030;-66
2022/02/05 11:25:59;;;;;;;16.80;6.85;;;;;;;5.84;66.36;100117.25;5109109;28;20397;-66
2022/02/05 11:28:51;;;;;;;9.23;4.13;;;;;;;5.93;67.23;100111.75;5111126;28;20034;-67
2022/02/05 11:31:32;;;;;;;10.48;5.07;;;;;;;5.88;67.13;100113.63;5109834;28;20036;-67
2022/02/05 11:34:13;;;;;;;9.45;4.43;;;;;;;5.77;67.58;100109.53;5111284;28;20590;-66
2022/02/05 11:36:40;;;;;;;12.40;4.93;;;;;;;5.68;67.05;100108.88;5102478;28;20546;-66
2022/02/05 11:39:06;;;;;;;16.20;5.68;;;;;;;5.74;67.18;100112.22;5101805;28;20040;-67
2022/02/05 11:41:34;;;;;;;18.77;5.30;;;;;;;5.71;67.04;100107.06;5110653;28;20031;-67
2022/02/05 11:44:14;;;;;;;16.55;4.35;;;;;;;5.74;67.17;100109.59;5111048;28;20034;-66
2022/02/05 11:46:41;;;;;;;8.38;4.18;;;;;;;5.73;67.00;100105.25;5107509;28;20028;-68
2022/02/05 11:49:06;;;;;;;10.45;5.85;;;;;;;5.87;66.55;100098.84;5110243;28;20121;-67
2022/02/05 11:51:33;;;;;;;7.80;3.63;;;;;;;5.96;64.90;100093.41;5109902;28;20046;-68
2022/02/05 11:53:58;;;;;;;24.85;6.95;;;;;;;5.96;65.00;100104.75;5092107;28;20057;-67
2022/02/05 11:59:21;;;;;;;12.50;3.63;;;;;;;5.88;65.10;100108.41;5095003;28;20040;-69
2022/02/05 12:01:46;;;;;;;12.95;3.95;;;;;;;5.83;64.22;100118.97;5090134;28;20055;-68
2022/02/05 12:04:17;;;;;;;12.05;4.15;;;;;;;5.81;64.22;100111.19;5106502;28;20059;-69
2022/02/05 12:06:52;;;;;;;17.48;4.93;;;;;;;5.86;63.93;100102.34;5108920;28;20039;-69
2022/02/05 12:09:39;;;;;;;11.98;3.92;;;;;;;5.85;64.29;100100.63;5092544;28;20027;-70
2022/02/05 12:12:24;;;;;;;9.52;3.70;;;;;;;5.86;63.68;100103.22;5109626;28;20547;-69
2022/02/05 12:15:08;;;;;;;6.85;2.65;;;;;;;6.04;62.94;100093.22;5104144;28;20040;-70
2022/02/05 12:18:02;;;;;;;11.15;4.57;;;;;;;6.22;63.49;100100.56;5109423;28;20039;-69
2022/02/05 12:20:32;;;;;;;23.10;4.13;;;;;;;6.31;63.27;100096.88;5087373;27;20421;-68
2022/02/05 12:23:17;;;;;;;16.08;3.65;;;;;;;6.47;62.38;100095.53;5088037;28;20102;-69
2022/02/05 12:25:58;;;;;;;7.65;3.65;;;;;;;6.51;61.44;100091.94;5098222;28;20039;-69
2022/02/05 12:28:29;;;;;;;9.82;4.00;;;;;;;6.63;61.46;100083.75;5084365;28;20139;-70
2022/02/05 12:30:55;;;;;;;9.50;3.75;;;;;;;6.61;60.66;100082.91;5097054;27;20098;-68
2022/02/05 12:33:21;;;;;;;14.63;2.92;;;;;;;6.58;61.38;100087.41;5084937;28;20031;-68
2022/02/05 12:35:52;;;;;;;10.02;3.22;;;;;;;6.56;61.72;100081.34;5093952;28;20042;-68
2022/02/05 12:38:18;;;;;;;7.97;3.45;;;;;;;6.64;61.50;100072.34;5104015;28;20080;-68
2022/02/05 12:40:49;;;;;;;14.07;3.75;;;;;;;6.56;61.73;100066.47;5097828;27;20036;-68
2022/02/05 12:43:17;;;;;;;8.75;4.00;;;;;;;6.50;61.57;100085.00;5084162;28;20638;-67
2022/02/05 12:46:05;;;;;;;7.60;2.90;;;;;;;6.61;61.47;100092.53;5096134;28;20046;-68
2022/02/05 12:48:31;;;;;;;10.98;3.13;;;;;;;6.72;61.41;100081.75;5092398;28;20711;-68
2022/02/05 12:50:59;;;;;;;13.52;4.53;;;;;;;6.85;61.39;100083.13;5090030;28;20103;-68
2022/02/05 12:53:34;;;;;;;14.70;4.78;;;;;;;6.75;60.58;100066.81;5105548;28;20040;-69
2022/02/05 12:56:33;;;;;;;8.85;4.18;;;;;;;6.72;60.72;100072.16;5106172;28;20039;-69
2022/02/05 12:59:07;;;;;;;10.70;3.25;;;;;;;6.63;60.57;100067.16;5086719;28;20035;-70
2022/02/05 13:01:37;;;;;;;9.27;4.30;;;;;;;6.60;60.64;100069.88;5104419;28;20027;-67
2022/02/05 13:04:14;;;;;;;9.68;3.63;;;;;;;6.71;60.53;100061.72;5103407;28;20027;-68
2022/02/05 13:06:40;;;;;;;7.32;2.88;;;;;;;6.64;60.52;100045.28;5103478;28;20020;-68
2022/02/05 13:09:23;;;;;;;11.20;3.28;;;;;;;6.57;60.85;100044.63;5103321;28;20046;-69
2022/02/05 13:11:58;;;;;;;7.93;3.83;;;;;;;6.63;60.50;100035.72;5103314;28;20039;-68
2022/02/05 13:14:57;;;;;;;12.18;3.45;;;;;;;6.64;60.60;100035.66;5101121;28;20036;-67
2022/02/05 13:17:30;;;;;;;5.57;3.22;;;;;;;6.65;60.80;100032.16;5103734;28;20517;-66
2022/02/05 13:25:39;;;;;;;10.93;3.30;;;;;;;6.83;59.00;100051.72;5101410;28;20051;-67
2022/02/05 13:28:11;;;;;;;10.05;3.28;;;;;;;6.83;58.62;100048.25;5103519;28;20043;-68
2022/02/05 13:36:13;;;;;;;8.80;3.45;;;;;;;6.96;57.81;100039.09;5103140;28;20047;-67
2022/02/05 13:41:08;;;;;;;9.05;2.80;;;;;;;7.08;57.87;100025.63;5102593;28;20031;-68
2022/02/05 13:43:44;;;;;;;8.73;3.13;;;;;;;7.09;57.29;100022.13;5103418;28;20035;-67
2022/02/05 13:46:21;;;;;;;13.35;4.30;;;;;;;7.16;57.00;100011.41;5101545;28;20035;-67
2022/02/05 13:48:46;;;;;;;10.40;2.97;;;;;;;7.16;56.46;100021.91;5103495;28;20046;-67
2022/02/05 13:51:12;;;;;;;7.50;3.15;;;;;;;7.19;56.16;100016.59;5102590;28;20044;-69
2022/02/05 13:53:55;;;;;;;8.93;3.10;;;;;;;7.18;56.30;100014.84;5103210;28;20111;-68
2022/02/05 13:56:22;;;;;;;9.45;2.83;;;;;;;7.11;56.62;100014.19;5102395;28;20085;-68
2022/02/05 13:58:48;;;;;;;7.45;2.85;;;;;;;7.05;55.74;100017.84;5102434;28;20032;-68
2022/02/05 14:01:33;;;;;;;5.07;2.95;;;;;;;6.99;54.49;100010.19;5102896;28;20439;-67
2022/02/05 14:04:13;;;;;;;9.13;3.88;;;;;;;6.95;53.76;100003.31;5103139;28;20043;-67
2022/02/05 14:06:55;;;;;;;9.20;2.67;;;;;;;6.86;53.50;100020.16;5102568;28;20040;-68
2022/02/05 14:09:25;;;;;;;9.10;2.40;;;;;;;6.86;53.65;100014.09;5103298;28;20035;-68
2022/02/05 14:11:50;;;;;;;9.38;2.75;;;;;;;6.86;53.24;100011.47;5103708;28;20035;-68
2022/02/05 14:14:26;;;;;;;5.50;2.30;;;;;;;6.88;52.97;100020.13;5081320;28;20055;-68
2022/02/05 14:16:51;;;;;;;9.63;3.25;;;;;;;6.89;53.31;100013.97;5082065;28;20043;-68
2022/02/05 14:19:25;;;;;;;13.63;4.70;;;;;;;6.91;53.55;100006.94;5082334;28;20054;-68
2022/02/05 14:21:53;;;;;;;9.60;3.70;;;;;;;6.92;54.14;100002.56;5100846;28;20038;-68
2022/02/05 14:24:24;;;;;;;5.85;2.67;;;;;;;6.93;53.86;99999.03;5102671;28;20397;-67
2022/02/05 14:29:20;;;;;;;6.82;2.50;;;;;;;6.90;53.06;99991.28;5101629;28;20035;-67
2022/02/05 14:31:50;;;;;;;7.13;2.95;;;;;;;6.85;53.10;99989.66;5100357;28;20055;-67
2022/02/05 14:42:12;;;;;;;9.20;2.58;;;;;;;6.83;53.73;100004.56;5100485;28;20112;-67
2022/02/05 14:44:38;;;;;;;5.82;2.58;;;;;;;6.81;54.16;100006.34;5101967;28;20409;-68
2022/02/05 14:47:05;;;;;;;5.28;3.10;;;;;;;6.78;54.43;100001.22;5100011;28;20034;-69
2022/02/05 14:49:30;;;;;;;13.88;3.75;;;;;;;6.76;54.94;100007.41;5100692;28;20043;-68
2022/02/05 14:51:57;;;;;;;7.70;2.72;;;;;;;6.73;55.39;99999.66;5100148;28;20039;-68
2022/02/05 14:54:23;;;;;;;17.63;2.95;;;;;;;6.69;55.98;100008.50;5101891;28;20036;-68
2022/02/05 14:56:49;;;;;;;11.40;3.15;;;;;;;6.68;55.99;100005.03;5101509;28;20035;-68
2022/02/05 14:59:15;;;;;;;5.80;2.22;;;;;;;6.66;56.05;99991.97;5101599;28;20039;-68
2022/02/05 15:01:41;;;;;;;5.80;2.20;;;;;;;6.66;56.25;99999.81;5082960;28;20845;-68
2022/02/05 15:04:07;;;;;;;8.95;2.78;;;;;;;6.68;56.61;100004.16;5101588;28;20113;-67
2022/02/05 15:06:32;;;;;;;5.85;2.65;;;;;;;6.65;56.18;100005.97;5102059;28;20460;-67
2022/02/05 15:09:00;;;;;;;7.93;2.60;;;;;;;6.64;56.06;100006.84;5102057;28;20385;-67
2022/02/05 15:11:27;;;;;;;9.75;3.00;;;;;;;6.61;56.06;100004.34;5101648;28;20054;-70
2022/02/05 15:13:56;;;;;;;9.25;2.90;;;;;;;6.59;56.18;100000.03;5102128;28;20043;-67
2022/02/05 15:16:21;;;;;;;6.22;2.63;;;;;;;6.56;56.76;99995.75;5101690;28;20074;-67
2022/02/05 15:18:56;;;;;;;10.23;2.92;;;;;;;6.57;56.20;99997.50;5081753;28;20079;-68
2022/02/05 15:21:22;;;;;;;7.78;2.70;;;;;;;6.56;56.43;100005.38;5080757;28;20451;-68
2022/02/05 15:23:48;;;;;;;6.50;2.85;;;;;;;6.57;56.42;100004.47;5080961;28;20782;-69
2022/02/05 15:26:16;;;;;;;5.05;2.60;;;;;;;6.55;56.05;99995.81;5080352;28;20031;-68
2022/02/05 15:28:46;;;;;;;6.30;2.92;;;;;;;6.56;56.01;100003.63;5101034;28;20130;-68
2022/02/05 15:31:11;;;;;;;6.18;2.17;;;;;;;6.59;55.86;99998.28;5087144;28;20040;-67
2022/02/05 15:33:43;;;;;;;5.35;2.75;;;;;;;6.61;56.02;99990.38;5073339;28;20117;-67
2022/02/05 15:36:16;;;;;;;9.20;2.13;;;;;;;6.58;55.81;99985.25;5061921;28;20031;-69
2022/02/05 15:38:51;;;;;;;12.05;2.50;;;;;;;6.57;56.23;99987.00;5074273;28;20048;-68
2022/02/05 15:44:01;;;;;;;12.30;4.07;;;;;;;6.49;56.60;99981.13;5080420;28;20055;-68
2022/02/05 15:46:26;;;;;;;9.27;2.20;;;;;;;6.51;56.80;99987.19;5080495;28;20032;-69
2022/02/05 15:48:52;;;;;;;6.72;2.80;;;;;;;6.52;56.86;99988.91;5080919;28;20043;-68
2022/02/05 15:51:18;;;;;;;4.28;2.65;;;;;;;6.54;57.26;99986.22;5080017;28;20749;-68
2022/02/05 15:53:57;;;;;;;9.90;2.67;;;;;;;6.52;56.37;99977.56;5080725;28;20043;-67
2022/02/05 15:56:33;;;;;;;13.48;2.47;;;;;;;6.47;55.97;99976.84;5082468;28;20048;-67
2022/02/05 15:59:01;;;;;;;10.70;4.45;;;;;;;6.44;56.12;99968.16;5104442;28;20188;-67
2022/02/05 16:01:26;;;;;;;12.27;3.50;;;;;;;6.41;56.33;99977.88;5086249;28;20036;-67
2022/02/05 16:03:52;;;;;;;10.13;2.45;;;;;;;6.32;56.95;99963.28;5105224;28;20940;-67
2022/02/05 16:06:17;;;;;;;10.27;2.78;;;;;;;6.24;57.06;99966.13;5104342;28;20031;-66
2022/02/05 16:08:43;;;;;;;6.88;2.25;;;;;;;6.17;57.43;99964.56;5104746;28;20035;-67
2022/02/05 16:11:08;;;;;;;9.00;3.75;;;;;;;6.15;57.82;99958.56;5104047;28;20761;-67
2022/02/05 16:13:33;;;;;;;8.95;2.90;;;;;;;6.08;58.13;99961.34;5104683;28;20464;-68
2022/02/05 16:15:59;;;;;;;7.43;2.95;;;;;;;6.02;58.02;99950.16;5088016;28;20046;-68
2022/02/05 16:18:24;;;;;;;10.60;3.20;;;;;;;5.96;58.52;99946.88;5085510;28;20036;-68
2022/02/05 16:20:50;;;;;;;6.38;3.22;;;;;;;5.93;58.92;99958.25;5088626;28;20036;-69
2022/02/05 16:23:16;;;;;;;6.20;2.25;;;;;;;5.91;59.19;99946.97;5094057;28;20085;-68
2022/02/05 16:25:41;;;;;;;6.68;2.42;;;;;;;5.91;59.38;99951.34;5101693;28;20042;-68
2022/02/05 16:28:06;;;;;;;10.18;2.42;;;;;;;5.85;59.48;99944.50;5104826;28;20050;-68
2022/02/05 16:30:36;;;;;;;13.93;2.80;;;;;;;5.85;59.78;99943.66;5096188;28;20048;-68
2022/02/05 16:33:03;;;;;;;8.90;2.85;;;;;;;5.78;59.87;99948.19;5096035;28;20032;-68
2022/02/05 16:35:32;;;;;;;12.05;2.90;;;;;;;5.80;60.50;99942.00;5095698;28;20494;-68
2022/02/05 16:37:58;;;;;;;7.15;3.00;;;;;;;5.78;60.73;99938.59;5083533;28;20050;-68
2022/02/05 16:40:30;;;;;;;13.60;3.55;;;;;;;5.79;61.09;99932.47;5083677;27;20042;-68
2022/02/05 16:42:55;;;;;;;6.25;2.63;;;;;;;5.78;61.10;99933.38;5103108;28;20039;-67
2022/02/05 16:45:23;;;;;;;6.97;3.33;;;;;;;5.74;61.06;99931.72;5103775;28;20066;-69
2022/02/05 16:47:49;;;;;;;9.10;3.58;;;;;;;5.71;61.05;99931.81;5103019;28;20042;-67
2022/02/05 16:50:16;;;;;;;7.30;2.70;;;;;;;5.67;61.29;99929.31;5103807;28;20031;-68
2022/02/05 16:52:48;;;;;;;8.95;3.28;;;;;;;5.63;60.84;99938.13;5102752;28;20040;-68
2022/02/05 16:55:13;;;;;;;8.75;2.60;;;;;;;5.60;61.23;99928.63;5104120;28;20492;-68
2022/02/05 16:57:38;;;;;;;6.90;3.83;;;;;;;5.57;61.19;99923.47;5087683;27;20043;-68
2022/02/05 17:00:05;;;;;;;20.98;2.90;;;;;;;5.52;61.65;99920.13;5084046;28;20024;-68
2022/02/05 17:02:30;;;;;;;8.88;3.13;;;;;;;5.50;61.70;99916.69;5085109;28;20078;-68
2022/02/05 17:04:56;;;;;;;12.43;3.53;;;;;;;5.48;61.67;99921.94;5083417;28;20036;-69
2022/02/05 17:07:21;;;;;;;5.95;2.53;;;;;;;5.43;61.78;99920.38;5083341;28;20040;-68
2022/02/05 17:09:52;;;;;;;10.25;3.55;;;;;;;5.44;62.21;99919.44;5083319;28;20064;-68
2022/02/05 17:12:17;;;;;;;14.18;4.35;;;;;;;5.40;62.20;99917.84;5083084;28;20517;-68
2022/02/05 17:14:43;;;;;;;5.78;2.58;;;;;;;5.36;62.37;99922.28;5087563;27;20047;-68
2022/02/05 17:17:12;;;;;;;5.22;2.97;;;;;;;5.36;62.52;99904.81;5104146;28;20062;-68
2022/02/05 17:19:40;;;;;;;12.50;4.60;;;;;;;5.40;62.60;99926.53;5104616;27;20751;-68
2022/02/05 17:22:05;;;;;;;7.35;3.15;;;;;;;5.42;62.79;99908.19;5086608;27;20428;-68
2022/02/05 17:24:31;;;;;;;4.93;2.95;;;;;;;5.40;62.83;99916.06;5083112;28;20077;-69
2022/02/05 17:26:56;;;;;;;13.20;3.80;;;;;;;5.38;62.45;99907.41;5083478;28;20033;-68
2022/02/05 17:29:22;;;;;;;13.38;4.25;;;;;;;5.38;62.45;99912.63;5083425;28;20032;-67
2022/02/05 17:31:47;;;;;;;11.65;3.10;;;;;;;5.35;62.62;99918.81;5083243;28;20040;-67
2022/02/05 17:34:12;;;;;;;10.55;3.33;;;;;;;5.32;62.59;99903.22;5082193;28;20594;-67
2022/02/05 17:36:37;;;;;;;7.60;2.78;;;;;;;5.36;63.12;99899.59;5082911;28;20043;-68
2022/02/05 17:39:05;;;;;;;9.90;3.25;;;;;;;5.37;63.19;99900.47;5083593;28;20043;-68
2022/02/05 17:41:31;;;;;;;11.45;3.35;;;;;;;5.37;63.21;99888.25;5082824;28;20032;-68
2022/02/05 17:43:56;;;;;;;15.60;5.80;;;;;;;5.35;63.14;99886.59;5082999;28;21801;-68
2022/02/05 17:46:21;;;;;;;9.23;2.90;;;;;;;5.36;63.14;99889.13;5063877;28;20032;-67
2022/02/05 17:48:47;;;;;;;8.15;3.33;;;;;;;5.37;62.87;99892.63;5081731;28;20028;-67
2022/02/05 17:51:12;;;;;;;7.70;3.15;;;;;;;5.41;62.93;99882.94;5081113;28;20534;-69
2022/02/05 17:53:38;;;;;;;13.55;3.22;;;;;;;5.37;63.25;99880.41;5081819;28;20036;-67
2022/02/05 17:56:05;;;;;;;15.23;4.93;;;;;;;5.38;63.31;99882.13;5082175;28;20028;-68
2022/02/05 17:58:37;;;;;;;13.48;4.00;;;;;;;5.34;63.28;99872.66;5081587;28;20047;-67
2022/02/05 18:01:04;;;;;;;9.70;3.80;;;;;;;5.34;63.71;99859.59;5081737;28;20042;-67
2022/02/05 18:03:31;;;;;;;8.93;3.35;;;;;;;5.31;63.01;99864.88;5082009;28;20044;-68
2022/02/05 18:06:03;;;;;;;10.63;4.57;;;;;;;5.30;63.23;99847.50;5082720;28;20036;-68
2022/02/05 18:08:35;;;;;;;13.70;3.22;;;;;;;5.30;63.61;99851.88;5082768;28;20044;-68
2022/02/05 18:16:06;;;;;;;16.38;4.28;;;;;;;5.29;63.69;99850.13;5087305;27;20036;-67
2022/02/05 18:18:31;;;;;;;9.20;3.25;;;;;;;5.26;63.55;99838.00;5102133;28;20565;-67
2022/02/05 18:20:58;;;;;;;14.70;3.10;;;;;;;5.30;63.32;99833.56;5073481;28;20046;-72
2022/02/05 18:23:23;;;;;;;7.70;2.95;;;;;;;5.29;63.49;99843.19;5087244;28;20059;-68
2022/02/05 18:25:49;;;;;;;12.48;3.58;;;;;;;5.35;63.89;99852.59;5092566;28;20206;-71
2022/02/05 18:28:16;;;;;;;19.88;5.25;;;;;;;5.38;63.86;99832.44;5107005;28;20153;-66
2022/02/05 18:30:43;;;;;;;12.82;4.80;;;;;;;5.37;63.45;99835.13;5105637;28;20417;-67
2022/02/05 18:33:09;;;;;;;13.65;4.50;;;;;;;5.36;64.00;99822.94;5107987;28;20385;-68
2022/02/05 18:35:36;;;;;;;9.15;3.80;;;;;;;5.34;63.42;99812.53;5090984;28;20039;-68
2022/02/05 18:38:06;;;;;;;12.32;3.97;;;;;;;5.29;63.44;99803.97;5084844;28;20069;-68
2022/02/05 18:40:36;;;;;;;10.02;3.83;;;;;;;5.29;63.85;99814.41;5101731;28;20249;-69
2022/02/05 18:43:03;;;;;;;12.27;3.03;;;;;;;5.29;63.55;99808.31;5102272;28;20093;-69
2022/02/05 18:45:29;;;;;;;17.63;3.30;;;;;;;5.29;63.93;99816.16;5087663;28;20070;-70
2022/02/05 18:47:55;;;;;;;7.80;3.72;;;;;;;5.30;63.98;99821.34;5093781;28;20031;-69
2022/02/05 18:50:20;;;;;;;13.93;4.32;;;;;;;5.28;63.43;99825.75;5085973;28;20040;-68
2022/02/05 18:52:46;;;;;;;7.32;3.35;;;;;;;5.37;63.77;99835.97;5083040;28;20036;-69
2022/02/05 18:55:13;;;;;;;12.60;3.00;;;;;;;5.41;63.87;99826.28;5100114;28;20039;-69
2022/02/05 18:57:39;;;;;;;7.50;2.90;;;;;;;5.42;63.77;99832.38;5101995;28;20031;-69
2022/02/05 19:00:13;;;;;;;5.13;2.65;;;;;;;5.44;63.26;99838.41;5101789;28;20050;-69
2022/02/05 19:10:55;;;;;;;11.23;2.67;;;;;;;5.53;63.17;99807.63;5102130;28;20546;-68
2022/02/05 19:18:19;;;;;;;6.97;2.60;;;;;;;5.66;63.12;99808.16;5102151;28;20032;-69
2022/02/05 19:20:47;;;;;;;14.82;3.45;;;;;;;5.64;62.96;99783.81;5101366;28;20039;-68
2022/02/05 19:23:18;;;;;;;9.48;3.38;;;;;;;5.68;62.94;99789.78;5101648;28;20032;-68
2022/02/05 19:25:44;;;;;;;5.47;2.63;;;;;;;5.70;62.79;99791.47;5101604;28;20038;-68
2022/02/05 19:28:11;;;;;;;11.60;3.20;;;;;;;5.73;62.98;99780.91;5101951;28;20028;-69
2022/02/05 19:30:39;;;;;;;5.85;3.15;;;;;;;5.73;62.80;99772.19;5103791;28;20035;-69
2022/02/05 19:33:07;;;;;;;8.38;2.50;;;;;;;5.75;62.88;99773.03;5106036;28;20043;-68
2022/02/05 19:35:34;;;;;;;11.57;2.83;;;;;;;5.78;62.62;99771.19;5105989;28;20148;-69
2022/02/05 19:38:00;;;;;;;8.00;2.80;;;;;;;5.78;62.64;99763.34;5085469;28;20036;-68